createdAt,value
2022-09-21T00:01:05.981Z,101800.91
2022-09-21T00:03:33.452Z,101799.78
2022-09-21T00:06:04.832Z,101805.38
2022-09-21T00:08:34.329Z,101802.56
2022-09-21T00:11:03.391Z,101808.13
2022-09-21T00:13:32.654Z,101804.41
2022-09-21T00:16:00.091Z,101805.47
2022-09-21T00:18:27.624Z,101814.22
2022-09-21T00:20:55.019Z,101814.44
2022-09-21T00:23:23.734Z,101806.44
2022-09-21T00:25:51.193Z,101807.25
2022-09-21T00:28:19.930Z,101816.16
2022-09-21T00:30:51.576Z,101810.91
2022-09-21T00:33:18.976Z,101813.69
2022-09-21T00:35:46.569Z,101805.69
2022-09-21T00:38:13.984Z,101808.38
2022-09-21T00:40:41.387Z,101810.09
2022-09-21T00:43:13.485Z,101808.38
2022-09-21T00:45:42.206Z,101809.31
2022-09-21T00:48:09.616Z,101806.53
2022-09-21T00:50:37.031Z,101803.03
2022-09-21T00:53:04.439Z,101806.66
2022-09-21T00:55:33.504Z,101808.38
2022-09-21T00:58:02.002Z,101813.94
2022-09-21T01:00:29.400Z,101813.94
2022-09-21T01:03:01.343Z,101813.94
2022-09-21T01:05:28.947Z,101808.59
2022-09-21T01:07:56.446Z,101821.09
2022-09-21T01:10:23.987Z,101815.88
2022-09-21T01:12:56.933Z,101819.50
2022-09-21T01:15:30.471Z,101823.03
2022-09-21T01:18:04.008Z,101821.22
2022-09-21T01:20:40.926Z,101829.34
2022-09-21T01:23:17.697Z,101824.84
2022-09-21T01:25:53.324Z,101838.94
2022-09-21T01:28:24.515Z,101833.59
2022-09-21T01:30:53.424Z,101830.94
2022-09-21T01:33:24.161Z,101827.38
2022-09-21T01:35:53.885Z,101838.06
2022-09-21T01:38:22.908Z,101837.22
2022-09-21T01:40:52.906Z,101844.50
2022-09-21T01:43:29.491Z,101842.56
2022-09-21T01:45:58.186Z,101842.66
2022-09-21T01:48:25.660Z,101836.59
2022-09-21T01:50:54.310Z,101838.28
2022-09-21T01:53:23.997Z,101838.56
2022-09-21T01:55:52.686Z,101842.06
2022-09-21T01:58:20.820Z,101842.66
2022-09-21T02:00:48.878Z,101843.78
2022-09-21T02:03:20.949Z,101850.78
2022-09-21T02:05:48.336Z,101847.38
2022-09-21T02:08:15.732Z,101843.00
2022-09-21T02:10:45.759Z,101840.22
2022-09-21T02:13:14.689Z,101844.72
2022-09-21T02:15:51.142Z,101836.72
2022-09-21T02:18:22.863Z,101850.06
2022-09-21T02:20:52.529Z,101847.28
2022-09-21T02:23:23.073Z,101849.09
2022-09-21T02:25:51.174Z,101843.00
2022-09-21T02:28:25.079Z,101847.50
2022-09-21T02:30:55.205Z,101840.22
2022-09-21T02:33:27.364Z,101838.56
2022-09-21T02:35:56.959Z,101835.00
2022-09-21T02:38:27.555Z,101836.00
2022-09-21T02:40:56.697Z,101837.78
2022-09-21T02:43:26.982Z,101835.13
2022-09-21T02:45:57.642Z,101836.94
2022-09-21T02:48:27.660Z,101832.59
2022-09-21T02:50:55.839Z,101835.28
2022-09-21T02:53:25.171Z,101843.28
2022-09-21T02:55:56.303Z,101847.72
2022-09-21T02:58:24.342Z,101840.72
2022-09-21T03:00:51.741Z,101846.06
2022-09-21T03:03:20.174Z,101863.63
2022-09-21T03:05:49.430Z,101864.59
2022-09-21T03:08:16.829Z,101863.13
2022-09-21T03:10:44.252Z,101868.44
2022-09-21T03:13:11.702Z,101872.09
2022-09-21T03:15:39.350Z,101870.28
2022-09-21T03:18:09.415Z,101869.66
2022-09-21T03:20:36.818Z,101861.66
2022-09-21T03:23:05.585Z,101869.44
2022-09-21T03:25:33.165Z,101878.06
2022-09-21T03:28:01.304Z,101873.78
2022-09-21T03:30:29.207Z,101875.50
2022-09-21T03:32:56.644Z,101872.09
2022-09-21T03:35:25.266Z,101873.78
2022-09-21T03:37:52.742Z,101879.34
2022-09-21T03:40:21.466Z,101877.66
2022-09-21T03:42:48.908Z,101874.00
2022-09-21T03:45:16.436Z,101874.00
2022-09-21T03:47:43.858Z,101875.22
2022-09-21T03:50:11.965Z,101874.00
2022-09-21T03:52:39.436Z,101879.00
2022-09-21T03:55:07.260Z,101871.84
2022-09-21T03:57:36.139Z,101883.63
2022-09-21T04:00:04.172Z,101880.34
2022-09-21T04:02:31.926Z,101873.19
2022-09-21T04:04:59.615Z,101874.28
2022-09-21T04:07:27.149Z,101881.19
2022-09-21T04:09:54.710Z,101876.69
2022-09-21T04:12:22.734Z,101882.28
2022-09-21T04:14:51.501Z,101887.59
2022-09-21T04:17:18.940Z,101883.22
2022-09-21T04:19:46.313Z,101884.19
2022-09-21T04:22:13.966Z,101885.06
2022-09-21T04:24:41.572Z,101885.06
2022-09-21T04:27:09.000Z,101884.44
2022-09-21T04:29:36.444Z,101890.50
2022-09-21T04:32:05.537Z,101888.56
2022-09-21T04:34:32.932Z,101887.81
2022-09-21T04:37:00.328Z,101880.66
2022-09-21T04:39:27.712Z,101885.16
2022-09-21T04:41:55.124Z,101875.56
2022-09-21T04:44:22.516Z,101880.78
2022-09-21T04:46:50.311Z,101881.50
2022-09-21T04:49:18.993Z,101881.75
2022-09-21T04:51:48.180Z,101878.22
2022-09-21T04:54:15.585Z,101885.06
2022-09-21T04:56:43.030Z,101883.97
2022-09-21T04:59:10.647Z,101890.50
2022-09-21T05:01:38.145Z,101888.56
2022-09-21T05:04:05.716Z,101893.06
2022-09-21T05:06:36.963Z,101901.91
2022-09-21T05:09:22.025Z,101901.78
2022-09-21T05:11:49.818Z,101915.97
2022-09-21T05:14:17.397Z,101911.84
2022-09-21T05:16:44.998Z,101915.22
2022-09-21T05:19:12.402Z,101913.50
2022-09-21T05:21:41.087Z,101910.72
2022-09-21T05:24:08.756Z,101919.84
2022-09-21T05:26:36.233Z,101915.22
2022-09-21T05:29:04.324Z,101919.84
2022-09-21T05:31:34.009Z,101927.84
2022-09-21T05:34:05.794Z,101929.41
2022-09-21T05:36:42.047Z,101930.38
2022-09-21T05:39:09.850Z,101931.00
2022-09-21T05:41:38.105Z,101931.44
2022-09-21T05:44:06.173Z,101930.38
2022-09-21T05:46:37.776Z,101935.59
2022-09-21T05:49:06.980Z,101945.50
2022-09-21T05:51:36.982Z,101931.22
2022-09-21T05:54:07.160Z,101940.19
2022-09-21T05:56:40.602Z,101941.91
2022-09-21T05:59:25.656Z,101947.97
2022-09-21T06:01:58.464Z,101938.28
2022-09-21T06:04:26.377Z,101943.63
2022-09-21T06:06:53.776Z,101938.03
2022-09-21T06:09:22.483Z,101943.72
2022-09-21T06:11:49.881Z,101950.84
2022-09-21T06:14:24.408Z,101944.69
2022-09-21T06:16:52.011Z,101953.50
2022-09-21T06:19:19.610Z,101954.38
2022-09-21T06:21:47.023Z,101949.16
2022-09-21T06:24:14.434Z,101962.50
2022-09-21T06:26:43.535Z,101957.91
2022-09-21T06:29:10.944Z,101948.94
2022-09-21T06:31:38.332Z,101956.19
2022-09-21T06:34:05.809Z,101953.41
2022-09-21T06:36:33.338Z,101956.19
2022-09-21T06:39:00.772Z,101959.84
2022-09-21T06:41:28.172Z,101956.19
2022-09-21T06:43:57.758Z,101956.28
2022-09-21T06:46:25.190Z,101953.50
2022-09-21T06:48:52.576Z,101965.16
2022-09-21T06:51:21.581Z,101961.50
2022-09-21T06:53:49.016Z,101963.22
2022-09-21T06:56:16.743Z,101963.22
2022-09-21T06:58:44.164Z,101957.16
2022-09-21T07:01:13.206Z,101966.00
2022-09-21T07:03:41.263Z,101967.84
2022-09-21T07:06:09.049Z,101968.56
2022-09-21T07:11:25.129Z,101983.84
2022-09-21T07:13:52.730Z,101980.28
2022-09-21T07:16:21.523Z,101982.84
2022-09-21T07:18:49.080Z,101980.44
2022-09-21T07:21:16.739Z,101984.78
2022-09-21T07:23:45.245Z,101993.00
2022-09-21T07:26:13.412Z,101981.38
2022-09-21T07:28:40.824Z,101983.09
2022-09-21T07:31:09.159Z,101985.63
2022-09-21T07:33:38.077Z,101981.16
2022-09-21T07:36:10.102Z,101984.91
2022-09-21T07:38:38.405Z,101982.84
2022-09-21T07:41:06.598Z,101985.53
2022-09-21T07:43:34.230Z,101989.78
2022-09-21T07:46:02.472Z,101980.94
2022-09-21T07:48:30.319Z,101984.47
2022-09-21T07:51:04.983Z,101985.19
2022-09-21T07:53:32.875Z,101984.56
2022-09-21T07:56:04.159Z,101981.91
2022-09-21T07:58:51.652Z,101982.41
2022-09-21T08:01:19.144Z,101975.63
2022-09-21T08:03:47.060Z,101983.63
2022-09-21T08:06:15.745Z,101987.75
2022-09-21T08:08:43.540Z,101995.97
2022-09-21T08:11:12.120Z,101995.13
2022-09-21T08:13:39.811Z,101996.69
2022-09-21T08:16:07.669Z,101995.84
2022-09-21T08:18:37.651Z,101998.84
2022-09-21T08:21:05.032Z,101998.41
2022-09-21T08:23:34.056Z,102000.34
2022-09-21T08:26:02.197Z,102005.69
2022-09-21T08:28:30.271Z,102003.03
2022-09-21T08:31:00.442Z,101997.56
2022-09-21T08:33:29.675Z,102003.03
2022-09-21T08:35:58.039Z,102009.09
2022-09-21T08:38:25.578Z,102001.81
2022-09-21T08:40:55.147Z,101999.38
2022-09-21T08:43:26.400Z,101994.78
2022-09-21T08:45:53.779Z,102000.88
2022-09-21T08:48:27.393Z,102008.00
2022-09-21T08:50:57.326Z,102016.75
2022-09-21T08:53:26.808Z,102006.94
2022-09-21T08:55:57.746Z,102006.09
2022-09-21T08:58:26.177Z,102008.13
2022-09-21T09:01:01.340Z,102007.88
2022-09-21T09:03:54.778Z,102013.31
2022-09-21T09:06:26.903Z,102007.16
2022-09-21T09:09:16.112Z,102015.66
2022-09-21T09:11:56.105Z,102019.31
2022-09-21T09:14:45.441Z,102015.66
2022-09-21T09:17:28.395Z,102016.50
2022-09-21T09:19:57.377Z,102013.84
2022-09-21T09:22:26.616Z,102015.56
2022-09-21T09:24:54.060Z,102011.81
2022-09-21T09:27:23.628Z,102012.66
2022-09-21T09:29:58.286Z,102015.00
2022-09-21T09:32:30.524Z,102013.28
2022-09-21T09:35:00.615Z,102012.09
2022-09-21T09:37:30.076Z,102013.91
2022-09-21T09:39:57.786Z,102011.13
2022-09-21T09:42:32.388Z,102017.53
2022-09-21T09:45:34.799Z,102010.19
2022-09-21T09:48:13.364Z,102018.19
2022-09-21T09:50:41.075Z,102018.84
2022-09-21T09:53:12.009Z,102018.91
2022-09-21T09:55:40.060Z,102021.59
2022-09-21T09:58:16.426Z,102024.47
2022-09-21T10:00:44.020Z,102015.63
2022-09-21T10:03:16.899Z,102023.53
2022-09-21T10:05:44.303Z,102013.59
2022-09-21T10:08:30.567Z,102007.28
2022-09-21T10:10:57.946Z,102010.91
2022-09-21T10:13:29.306Z,102010.03
2022-09-21T10:15:58.016Z,102009.63
2022-09-21T10:18:27.003Z,102010.47
2022-09-21T10:20:58.863Z,102014.63
2022-09-21T10:23:26.522Z,102015.34
2022-09-21T10:25:55.684Z,102000.59
2022-09-21T10:28:23.125Z,102002.28
2022-09-21T10:30:51.839Z,102004.47
2022-09-21T10:33:19.938Z,102000.97
2022-09-21T10:35:51.032Z,102001.44
2022-09-21T10:38:22.458Z,102009.44
2022-09-21T10:40:50.263Z,102007.38
2022-09-21T10:43:24.352Z,102000.13
2022-09-21T10:45:57.453Z,101996.47
2022-09-21T10:48:25.726Z,102001.19
2022-09-21T10:50:53.486Z,102003.75
2022-09-21T10:53:24.323Z,101997.22
2022-09-21T10:56:11.857Z,101994.78
2022-09-21T10:58:42.118Z,101991.38
2022-09-21T11:01:17.825Z,102001.09
2022-09-21T11:03:50.803Z,101996.47
2022-09-21T11:06:22.343Z,101996.47
2022-09-21T11:08:53.405Z,101986.81
2022-09-21T11:11:41.909Z,101983.91
2022-09-21T11:14:16.811Z,101980.28
2022-09-21T11:16:50.234Z,101974.56
2022-09-21T11:19:21.807Z,101972.38
2022-09-21T11:21:53.162Z,101971.31
2022-09-21T11:24:23.586Z,101972.88
2022-09-21T11:26:54.145Z,101967.91
2022-09-21T11:32:05.976Z,101976.34
2022-09-21T11:34:48.430Z,101979.53
2022-09-21T11:39:55.692Z,101971.06
2022-09-21T11:42:32.734Z,101966.31
2022-09-21T11:45:01.108Z,101968.75
2022-09-21T11:47:38.138Z,101967.28
2022-09-21T11:50:30.731Z,101962.94
2022-09-21T11:53:11.139Z,101967.06
2022-09-21T11:56:11.460Z,101962.09
2022-09-21T11:58:41.515Z,101963.69
2022-09-21T12:01:14.817Z,101953.84
2022-09-21T12:03:50.824Z,101951.06
2022-09-21T12:06:24.249Z,101945.47
2022-09-21T12:09:20.254Z,101947.88
2022-09-21T12:11:49.877Z,101946.09
2022-09-21T12:14:22.403Z,101939.75
2022-09-21T12:16:54.731Z,101953.59
2022-09-21T12:19:27.736Z,101944.38
2022-09-21T12:21:56.677Z,101938.41
2022-09-21T12:24:31.225Z,101952.13
2022-09-21T12:27:02.916Z,101943.41
2022-09-21T12:29:31.732Z,101940.84
2022-09-21T12:32:03.239Z,101948.97
2022-09-21T12:34:35.146Z,101941.78
2022-09-21T12:37:13.283Z,101944.59
2022-09-21T12:39:42.654Z,101940.59
2022-09-21T12:42:16.980Z,101938.53
2022-09-21T12:44:52.767Z,101931.75
2022-09-21T12:47:21.669Z,101931.03
2022-09-21T12:49:50.385Z,101927.88
2022-09-21T12:52:20.920Z,101929.66
2022-09-21T12:54:51.179Z,101930.78
2022-09-21T12:57:43.009Z,101928.22
2022-09-21T13:00:14.130Z,101927.38
2022-09-21T13:05:22.033Z,101926.03
2022-09-21T13:07:58.245Z,101918.63
2022-09-21T13:10:39.831Z,101923.88
2022-09-21T13:13:10.598Z,101924.47
2022-09-21T13:15:43.132Z,101923.50
2022-09-21T13:18:18.114Z,101919.72
2022-09-21T13:20:46.836Z,101922.06
2022-09-21T13:23:16.568Z,101917.66
2022-09-21T13:25:44.273Z,101916.81
2022-09-21T13:28:20.308Z,101919.38
2022-09-21T13:30:49.033Z,101923.00
2022-09-21T13:33:33.658Z,101913.66
2022-09-21T13:36:05.340Z,101924.59
2022-09-21T13:38:34.338Z,101917.69
2022-09-21T13:41:02.356Z,101913.28
2022-09-21T13:43:46.843Z,101920.09
2022-09-21T13:46:56.112Z,101925.06
2022-09-21T13:49:30.943Z,101916.94
2022-09-21T13:52:01.962Z,101919.50
2022-09-21T13:54:33.402Z,101914.50
2022-09-21T13:57:09.038Z,101907.00
2022-09-21T13:59:38.727Z,101915.25
2022-09-21T14:02:11.046Z,101912.81
2022-09-21T14:04:39.275Z,101911.84
2022-09-21T14:07:08.279Z,101910.63
2022-09-21T14:09:43.880Z,101912.34
2022-09-21T14:12:19.268Z,101913.91
2022-09-21T14:14:46.697Z,101908.31
2022-09-21T14:17:35.134Z,101903.94
2022-09-21T14:20:02.609Z,101902.00
2022-09-21T14:22:37.712Z,101891.06
2022-09-21T14:25:38.357Z,101897.28
2022-09-21T14:28:06.927Z,101889.28
2022-09-21T14:30:35.467Z,101896.41
2022-09-21T14:33:13.064Z,101895.56
2022-09-21T14:35:42.169Z,101886.59
2022-09-21T14:38:17.804Z,101891.94
2022-09-21T14:40:47.824Z,101890.00
2022-09-21T14:43:20.814Z,101886.59
2022-09-21T14:45:55.765Z,101888.16
2022-09-21T14:48:27.008Z,101884.78
2022-09-21T14:50:56.375Z,101881.25
2022-09-21T14:53:43.140Z,101883.06
2022-09-21T14:56:22.475Z,101884.06
2022-09-21T14:58:57.989Z,101884.06
2022-09-21T15:01:37.309Z,101879.44
2022-09-21T15:04:24.257Z,101870.59
2022-09-21T15:07:12.095Z,101869.81
2022-09-21T15:10:05.886Z,101877.00
2022-09-21T15:12:38.486Z,101872.50
2022-09-21T15:15:24.738Z,101869.09
2022-09-21T15:17:57.337Z,101867.28
2022-09-21T15:20:27.643Z,101861.09
2022-09-21T15:22:55.572Z,101862.09
2022-09-21T15:25:24.346Z,101864.59
2022-09-21T15:27:51.941Z,101862.09
2022-09-21T15:30:20.991Z,101861.22
2022-09-21T15:32:50.504Z,101862.19
2022-09-21T15:35:19.266Z,101866.94
2022-09-21T15:37:47.220Z,101874.19
2022-09-21T15:40:20.373Z,101867.91
2022-09-21T15:43:01.259Z,101860.72
2022-09-21T15:45:29.134Z,101873.25
2022-09-21T15:47:56.691Z,101868.84
2022-09-21T15:50:24.236Z,101867.06
2022-09-21T15:52:53.204Z,101880.53
2022-09-21T15:55:21.824Z,101867.28
2022-09-21T15:57:50.144Z,101866.47
2022-09-21T16:00:24.434Z,101864.75
2022-09-21T16:03:04.414Z,101870.91
2022-09-21T16:05:34.368Z,101872.75
2022-09-21T16:08:11.367Z,101879.06
2022-09-21T16:10:42.048Z,101876.50
2022-09-21T16:13:34.310Z,101880.16
2022-09-21T16:16:04.826Z,101880.16
2022-09-21T16:18:35.145Z,101879.31
2022-09-21T16:21:10.011Z,101888.28
2022-09-21T16:23:39.372Z,101888.41
2022-09-21T16:26:07.065Z,101878.06
2022-09-21T16:28:38.876Z,101883.56
2022-09-21T16:31:26.698Z,101887.31
2022-09-21T16:34:07.916Z,101883.06
2022-09-21T16:36:43.083Z,101882.19
2022-09-21T16:39:15.738Z,101878.81
2022-09-21T16:41:47.229Z,101895.78
2022-09-21T16:44:19.642Z,101888.75
2022-09-21T16:46:51.312Z,101883.41
2022-09-21T16:49:19.772Z,101886.69
2022-09-21T16:51:48.908Z,101884.50
2022-09-21T16:54:17.599Z,101880.25
2022-09-21T16:56:46.377Z,101883.69
2022-09-21T16:59:16.216Z,101885.75
2022-09-21T17:01:44.251Z,101891.91
2022-09-21T17:04:13.966Z,101890.09
2022-09-21T17:06:41.369Z,101892.16
2022-09-21T17:09:20.714Z,101900.16
2022-09-21T17:11:48.408Z,101889.59
2022-09-21T17:14:16.643Z,101888.63
2022-09-21T17:16:46.272Z,101896.75
2022-09-21T17:19:14.985Z,101898.09
2022-09-21T17:21:42.531Z,101905.22
2022-09-21T17:24:09.926Z,101900.88
2022-09-21T17:26:37.318Z,101895.78
2022-09-21T17:29:05.713Z,101898.66
2022-09-21T17:31:33.209Z,101896.94
2022-09-21T17:34:10.094Z,101902.44
2022-09-21T17:36:38.775Z,101900.59
2022-09-21T17:39:06.911Z,101906.06
2022-09-21T17:41:38.128Z,101899.38
2022-09-21T17:44:08.686Z,101900.13
2022-09-21T17:46:39.556Z,101900.50
2022-09-21T17:49:07.323Z,101904.47
2022-09-21T17:51:52.983Z,101899.28
2022-09-21T17:54:22.143Z,101902.78
2022-09-21T17:56:52.636Z,101912.47
2022-09-21T17:59:26.836Z,101905.22
2022-09-21T18:01:59.094Z,101907.13
2022-09-21T18:04:27.964Z,101904.72
2022-09-21T18:06:55.842Z,101914.56
2022-09-21T18:09:25.094Z,101907.13
2022-09-21T18:12:21.098Z,101914.41
2022-09-21T18:14:52.967Z,101911.75
2022-09-21T18:17:33.268Z,101914.91
2022-09-21T18:20:07.675Z,101922.69
2022-09-21T18:22:38.119Z,101919.28
2022-09-21T18:25:11.008Z,101925.34
2022-09-21T18:27:38.858Z,101923.63
2022-09-21T18:30:07.854Z,101920.00
2022-09-21T18:32:42.532Z,101923.63
2022-09-21T18:35:23.440Z,101920.97
2022-09-21T18:38:02.733Z,101919.41
2022-09-21T18:40:35.370Z,101921.69
2022-09-21T18:43:06.190Z,101920.84
2022-09-21T18:45:36.087Z,101927.75
2022-09-21T18:48:21.332Z,101926.56
2022-09-21T18:50:52.131Z,101930.81
2022-09-21T18:53:23.138Z,101925.81
2022-09-21T18:55:52.642Z,101937.47
2022-09-21T18:58:20.375Z,101933.97
2022-09-21T19:00:48.489Z,101935.97
2022-09-21T19:03:18.650Z,101931.63
2022-09-21T19:05:52.275Z,101927.97
2022-09-21T19:08:21.099Z,101926.28
2022-09-21T19:10:50.425Z,101934.31
2022-09-21T19:13:36.265Z,101931.63
2022-09-21T19:16:17.855Z,101931.81
2022-09-21T19:18:51.842Z,101941.53
2022-09-21T19:21:26.676Z,101936.22
2022-09-21T19:24:03.716Z,101937.06
2022-09-21T19:26:34.317Z,101927.97
2022-09-21T19:29:14.952Z,101932.81
2022-09-21T19:31:42.504Z,101933.25
2022-09-21T19:34:13.391Z,101941.38
2022-09-21T19:36:41.646Z,101939.66
2022-09-21T19:39:10.446Z,101936.38
2022-09-21T19:41:43.190Z,101939.28
2022-09-21T19:44:21.065Z,101943.75
2022-09-21T19:47:00.378Z,101943.88
2022-09-21T19:49:33.429Z,101946.66
2022-09-21T19:52:01.148Z,101940.34
2022-09-21T19:54:46.716Z,101938.03
2022-09-21T19:57:32.993Z,101949.97
2022-09-21T20:00:02.508Z,101951.75
2022-09-21T20:02:33.817Z,101948.34
2022-09-21T20:05:03.123Z,101945.06
2022-09-21T20:07:36.692Z,101952.34
2022-09-21T20:10:12.399Z,101947.13
2022-09-21T20:12:43.171Z,101945.28
2022-09-21T20:15:16.253Z,101945.41
2022-09-21T20:17:47.413Z,101949.16
2022-09-21T20:20:18.256Z,101945.41
2022-09-21T20:22:45.882Z,101950.41
2022-09-21T20:25:15.019Z,101946.94
2022-09-21T20:27:44.612Z,101949.66
2022-09-21T20:30:14.805Z,101946.28
2022-09-21T20:32:45.340Z,101945.03
2022-09-21T20:35:16.070Z,101945.47
2022-09-21T20:37:43.609Z,101954.66
2022-09-21T20:40:11.579Z,101950.50
2022-09-21T20:42:39.441Z,101948.88
2022-09-21T20:45:08.163Z,101948.25
2022-09-21T20:47:36.856Z,101949.97
2022-09-21T20:50:04.535Z,101951.88
2022-09-21T20:52:31.917Z,101943.88
2022-09-21T20:54:59.356Z,101954.84
2022-09-21T20:57:26.779Z,101951.31
2022-09-21T20:59:54.237Z,101949.06
2022-09-21T21:02:21.761Z,101947.03
2022-09-21T21:04:50.476Z,101948.63
2022-09-21T21:07:17.899Z,101952.44
2022-09-21T21:09:45.295Z,101951.25
2022-09-21T21:12:13.067Z,101951.75
2022-09-21T21:14:40.710Z,101954.53
2022-09-21T21:17:08.176Z,101952.97
2022-09-21T21:19:35.584Z,101955.63
2022-09-21T21:22:04.336Z,101957.56
2022-09-21T21:24:40.813Z,101961.06
2022-09-21T21:27:08.706Z,101961.91
2022-09-21T21:29:36.125Z,101968.84
2022-09-21T21:32:03.802Z,101963.91
2022-09-21T21:34:31.294Z,101962.00
2022-09-21T21:37:03.850Z,101962.00
2022-09-21T21:39:31.514Z,101955.66
2022-09-21T21:41:58.927Z,101949.50
2022-09-21T21:44:26.451Z,101946.00
2022-09-21T21:46:54.702Z,101951.09
2022-09-21T21:49:22.139Z,101954.09
2022-09-21T21:51:50.049Z,101943.53
2022-09-21T21:54:19.181Z,101946.22
2022-09-21T21:56:46.571Z,101944.38
2022-09-21T21:59:17.570Z,101938.22
2022-09-21T22:01:45.434Z,101938.94
2022-09-21T22:04:12.892Z,101938.00
2022-09-21T22:06:40.561Z,101938.94
2022-09-21T22:09:08.998Z,101944.28
2022-09-21T22:11:37.812Z,101935.53
2022-09-21T22:14:05.854Z,101939.41
2022-09-21T22:16:34.382Z,101935.03
2022-09-21T22:19:02.982Z,101942.81
2022-09-21T22:21:31.117Z,101940.88
2022-09-21T22:23:59.422Z,101938.09
2022-09-21T22:26:27.424Z,101942.69
2022-09-21T22:28:58.283Z,101938.22
2022-09-21T22:31:27.843Z,101937.38
2022-09-21T22:33:56.050Z,101935.53
2022-09-21T22:36:24.507Z,101943.44
2022-09-21T22:38:51.984Z,101936.50
2022-09-21T22:41:20.612Z,101937.25
2022-09-21T22:43:48.769Z,101932.88
2022-09-21T22:46:17.535Z,101938.31
2022-09-21T22:48:45.501Z,101930.44
2022-09-21T22:51:13.275Z,101935.75
2022-09-21T22:53:40.711Z,101937.69
2022-09-21T22:56:09.068Z,101938.44
2022-09-21T22:58:37.282Z,101934.91
2022-09-21T23:01:06.285Z,101939.31
2022-09-21T23:03:35.130Z,101936.84
2022-09-21T23:06:02.643Z,101938.66
2022-09-21T23:08:30.175Z,101939.53
2022-09-21T23:10:57.808Z,101941.31
2022-09-21T23:13:26.465Z,101942.28
2022-09-21T23:15:53.942Z,101936.97
2022-09-21T23:18:21.416Z,101937.91
2022-09-21T23:20:58.303Z,101940.59
2022-09-21T23:23:26.158Z,101943.13
2022-09-21T23:26:04.239Z,101944.13
2022-09-21T23:28:31.652Z,101937.91
2022-09-21T23:31:00.156Z,101936.22
2022-09-21T23:33:31.140Z,101941.56
2022-09-21T23:36:00.160Z,101938.03
2022-09-21T23:38:29.250Z,101944.22
2022-09-21T23:41:04.235Z,101939.84
2022-09-21T23:43:31.681Z,101938.13
2022-09-21T23:45:59.107Z,101938.28
2022-09-21T23:48:26.813Z,101932.81
2022-09-21T23:50:54.332Z,101931.13
2022-09-21T23:53:23.218Z,101939.34
2022-09-21T23:55:50.617Z,101938.50
2022-09-21T23:58:18.056Z,101940.28
